sensor_id;sensor_type;location;lat;lon;timestamp;P1;durP1;ratioP1;P2;durP2;ratioP2
15936;SDS011;9163;48.818;8.976;2023-12-20T00:02:22;1.87;;;1.60;;
15936;SDS011;9163;48.818;8.976;2023-12-20T00:04:49;2.00;;;1.67;;
15936;SDS011;9163;48.818;8.976;2023-12-20T00:07:16;1.87;;;1.50;;
15936;SDS011;9163;48.818;8.976;2023-12-20T00:09:43;2.70;;;2.10;;
15936;SDS011;9163;48.818;8.976;2023-12-20T00:12:11;4.23;;;1.93;;
15936;SDS011;9163;48.818;8.976;2023-12-20T00:14:38;2.00;;;1.80;;
15936;SDS011;9163;48.818;8.976;2023-12-20T00:17:07;2.63;;;2.00;;
15936;SDS011;9163;48.818;8.976;2023-12-20T00:19:34;2.73;;;1.90;;
15936;SDS011;9163;48.818;8.976;2023-12-20T00:22:01;3.90;;;2.00;;
15936;SDS011;9163;48.818;8.976;2023-12-20T00:24:28;2.23;;;1.67;;
15936;SDS011;9163;48.818;8.976;2023-12-20T00:26:56;2.33;;;1.70;;
15936;SDS011;9163;48.818;8.976;2023-12-20T00:29:23;2.20;;;1.97;;
15936;SDS011;9163;48.818;8.976;2023-12-20T00:31:50;2.70;;;1.90;;
15936;SDS011;9163;48.818;8.976;2023-12-20T00:34:19;3.10;;;1.90;;
15936;SDS011;9163;48.818;8.976;2023-12-20T00:36:46;2.63;;;2.10;;
15936;SDS011;9163;48.818;8.976;2023-12-20T00:39:13;3.40;;;2.00;;
15936;SDS011;9163;48.818;8.976;2023-12-20T00:41:41;2.70;;;2.00;;
15936;SDS011;9163;48.818;8.976;2023-12-20T00:44:08;2.27;;;1.50;;
15936;SDS011;9163;48.818;8.976;2023-12-20T00:46:35;4.13;;;1.80;;
15936;SDS011;9163;48.818;8.976;2023-12-20T00:49:02;2.47;;;1.90;;
15936;SDS011;9163;48.818;8.976;2023-12-20T00:51:31;2.83;;;1.90;;
15936;SDS011;9163;48.818;8.976;2023-12-20T00:53:58;2.87;;;2.00;;
15936;SDS011;9163;48.818;8.976;2023-12-20T00:56:26;2.00;;;1.70;;
15936;SDS011;9163;48.818;8.976;2023-12-20T00:58:53;4.33;;;2.20;;
15936;SDS011;9163;48.818;8.976;2023-12-20T01:01:21;2.53;;;2.00;;
15936;SDS011;9163;48.818;8.976;2023-12-20T01:03:48;4.33;;;2.20;;
15936;SDS011;9163;48.818;8.976;2023-12-20T01:06:16;2.40;;;1.73;;
15936;SDS011;9163;48.818;8.976;2023-12-20T01:08:45;2.40;;;2.00;;
15936;SDS011;9163;48.818;8.976;2023-12-20T01:11:12;2.37;;;1.90;;
15936;SDS011;9163;48.818;8.976;2023-12-20T01:13:39;2.37;;;2.00;;
15936;SDS011;9163;48.818;8.976;2023-12-20T01:16:08;3.50;;;1.90;;
15936;SDS011;9163;48.818;8.976;2023-12-20T01:18:37;3.27;;;2.00;;
15936;SDS011;9163;48.818;8.976;2023-12-20T01:21:04;3.13;;;1.90;;
15936;SDS011;9163;48.818;8.976;2023-12-20T01:23:32;3.43;;;1.83;;
15936;SDS011;9163;48.818;8.976;2023-12-20T01:26:00;3.07;;;1.73;;
15936;SDS011;9163;48.818;8.976;2023-12-20T01:28:28;2.20;;;1.67;;
15936;SDS011;9163;48.818;8.976;2023-12-20T01:30:55;2.07;;;1.50;;
15936;SDS011;9163;48.818;8.976;2023-12-20T01:33:22;2.27;;;1.70;;
15936;SDS011;9163;48.818;8.976;2023-12-20T01:35:50;2.37;;;1.60;;
15936;SDS011;9163;48.818;8.976;2023-12-20T01:38:17;1.40;;;1.30;;
15936;SDS011;9163;48.818;8.976;2023-12-20T01:40:45;2.37;;;1.60;;
15936;SDS011;9163;48.818;8.976;2023-12-20T01:43:14;1.87;;;1.23;;
15936;SDS011;9163;48.818;8.976;2023-12-20T01:45:41;1.60;;;1.00;;
15936;SDS011;9163;48.818;8.976;2023-12-20T01:48:08;1.10;;;0.97;;
15936;SDS011;9163;48.818;8.976;2023-12-20T01:50:36;1.17;;;0.70;;
15936;SDS011;9163;48.818;8.976;2023-12-20T01:53:05;2.23;;;0.50;;
15936;SDS011;9163;48.818;8.976;2023-12-20T01:55:34;0.80;;;0.47;;
15936;SDS011;9163;48.818;8.976;2023-12-20T01:58:03;0.33;;;0.30;;
15936;SDS011;9163;48.818;8.976;2023-12-20T02:00:32;1.17;;;0.20;;
15936;SDS011;9163;48.818;8.976;2023-12-20T02:03:00;0.20;;;0.20;;
15936;SDS011;9163;48.818;8.976;2023-12-20T02:05:29;0.70;;;0.20;;
15936;SDS011;9163;48.818;8.976;2023-12-20T02:07:56;0.20;;;0.20;;
15936;SDS011;9163;48.818;8.976;2023-12-20T02:10:24;0.10;;;0.10;;
15936;SDS011;9163;48.818;8.976;2023-12-20T02:12:51;0.10;;;0.10;;
15936;SDS011;9163;48.818;8.976;2023-12-20T02:15:19;0.40;;;0.20;;
15936;SDS011;9163;48.818;8.976;2023-12-20T02:17:48;0.20;;;0.20;;
15936;SDS011;9163;48.818;8.976;2023-12-20T02:20:16;0.90;;;0.10;;
15936;SDS011;9163;48.818;8.976;2023-12-20T02:22:44;0.10;;;0.10;;
15936;SDS011;9163;48.818;8.976;2023-12-20T02:25:12;0.07;;;0.07;;
15936;SDS011;9163;48.818;8.976;2023-12-20T02:27:39;0.10;;;0.10;;
15936;SDS011;9163;48.818;8.976;2023-12-20T02:30:07;0.30;;;0.20;;
15936;SDS011;9163;48.818;8.976;2023-12-20T02:32:35;0.37;;;0.17;;
15936;SDS011;9163;48.818;8.976;2023-12-20T02:35:02;0.23;;;0.10;;
15936;SDS011;9163;48.818;8.976;2023-12-20T02:37:30;0.10;;;0.10;;
15936;SDS011;9163;48.818;8.976;2023-12-20T02:40:00;0.20;;;0.10;;
15936;SDS011;9163;48.818;8.976;2023-12-20T02:42:28;0.20;;;0.20;;
15936;SDS011;9163;48.818;8.976;2023-12-20T02:44:55;0.10;;;0.10;;
15936;SDS011;9163;48.818;8.976;2023-12-20T02:47:22;0.43;;;0.10;;
15936;SDS011;9163;48.818;8.976;2023-12-20T02:49:50;0.73;;;0.10;;
15936;SDS011;9163;48.818;8.976;2023-12-20T02:52:18;0.10;;;0.10;;
15936;SDS011;9163;48.818;8.976;2023-12-20T02:54:45;0.10;;;0.10;;
15936;SDS011;9163;48.818;8.976;2023-12-20T02:57:14;0.20;;;0.20;;
15936;SDS011;9163;48.818;8.976;2023-12-20T02:59:41;0.10;;;0.10;;
15936;SDS011;9163;48.818;8.976;2023-12-20T03:02:08;0.20;;;0.20;;
15936;SDS011;9163;48.818;8.976;2023-12-20T03:04:35;1.33;;;0.27;;
15936;SDS011;9163;48.818;8.976;2023-12-20T03:07:03;0.10;;;0.10;;
15936;SDS011;9163;48.818;8.976;2023-12-20T03:09:30;0.77;;;0.27;;
15936;SDS011;9163;48.818;8.976;2023-12-20T03:11:57;1.07;;;0.30;;
15936;SDS011;9163;48.818;8.976;2023-12-20T03:14:26;0.20;;;0.10;;
15936;SDS011;9163;48.818;8.976;2023-12-20T03:16:53;0.70;;;0.20;;
15936;SDS011;9163;48.818;8.976;2023-12-20T03:19:20;0.10;;;0.10;;
15936;SDS011;9163;48.818;8.976;2023-12-20T03:21:48;0.20;;;0.20;;
15936;SDS011;9163;48.818;8.976;2023-12-20T03:24:15;0.50;;;0.20;;
15936;SDS011;9163;48.818;8.976;2023-12-20T03:26:42;0.30;;;0.20;;
15936;SDS011;9163;48.818;8.976;2023-12-20T03:29:09;0.30;;;0.20;;
15936;SDS011;9163;48.818;8.976;2023-12-20T03:31:38;0.17;;;0.17;;
15936;SDS011;9163;48.818;8.976;2023-12-20T03:34:05;0.20;;;0.20;;
15936;SDS011;9163;48.818;8.976;2023-12-20T03:36:33;0.97;;;0.17;;
15936;SDS011;9163;48.818;8.976;2023-12-20T03:39:00;0.13;;;0.13;;
15936;SDS011;9163;48.818;8.976;2023-12-20T03:41:27;0.70;;;0.20;;
15936;SDS011;9163;48.818;8.976;2023-12-20T03:43:54;0.50;;;0.23;;
15936;SDS011;9163;48.818;8.976;2023-12-20T03:46:21;0.53;;;0.20;;
15936;SDS011;9163;48.818;8.976;2023-12-20T03:48:50;0.20;;;0.10;;
15936;SDS011;9163;48.818;8.976;2023-12-20T03:51:17;0.33;;;0.20;;
15936;SDS011;9163;48.818;8.976;2023-12-20T03:53:44;0.20;;;0.20;;
15936;SDS011;9163;48.818;8.976;2023-12-20T03:56:11;0.20;;;0.10;;
15936;SDS011;9163;48.818;8.976;2023-12-20T03:58:39;0.20;;;0.20;;
15936;SDS011;9163;48.818;8.976;2023-12-20T04:01:09;0.60;;;0.37;;
15936;SDS011;9163;48.818;8.976;2023-12-20T04:03:37;0.10;;;0.10;;
15936;SDS011;9163;48.818;8.976;2023-12-20T04:06:05;0.50;;;0.20;;
15936;SDS011;9163;48.818;8.976;2023-12-20T04:08:33;0.60;;;0.20;;
15936;SDS011;9163;48.818;8.976;2023-12-20T04:11:00;0.20;;;0.20;;
15936;SDS011;9163;48.818;8.976;2023-12-20T04:13:27;0.30;;;0.20;;
15936;SDS011;9163;48.818;8.976;2023-12-20T04:15:55;0.20;;;0.20;;
15936;SDS011;9163;48.818;8.976;2023-12-20T04:18:22;0.83;;;0.20;;
15936;SDS011;9163;48.818;8.976;2023-12-20T04:20:49;0.20;;;0.20;;
15936;SDS011;9163;48.818;8.976;2023-12-20T04:23:18;0.50;;;0.30;;
15936;SDS011;9163;48.818;8.976;2023-12-20T04:25:46;0.20;;;0.20;;
15936;SDS011;9163;48.818;8.976;2023-12-20T04:28:13;0.67;;;0.30;;
15936;SDS011;9163;48.818;8.976;2023-12-20T04:30:40;0.30;;;0.20;;
15936;SDS011;9163;48.818;8.976;2023-12-20T04:33:08;0.10;;;0.10;;
15936;SDS011;9163;48.818;8.976;2023-12-20T04:35:35;0.40;;;0.20;;
15936;SDS011;9163;48.818;8.976;2023-12-20T04:38:03;0.20;;;0.20;;
15936;SDS011;9163;48.818;8.976;2023-12-20T04:40:31;0.20;;;0.20;;
15936;SDS011;9163;48.818;8.976;2023-12-20T04:42:59;0.30;;;0.20;;
15936;SDS011;9163;48.818;8.976;2023-12-20T04:45:26;0.30;;;0.20;;
15936;SDS011;9163;48.818;8.976;2023-12-20T04:47:54;0.70;;;0.20;;
15936;SDS011;9163;48.818;8.976;2023-12-20T04:50:22;0.20;;;0.20;;
15936;SDS011;9163;48.818;8.976;2023-12-20T04:52:49;1.37;;;0.20;;
15936;SDS011;9163;48.818;8.976;2023-12-20T04:55:17;0.30;;;0.20;;
15936;SDS011;9163;48.818;8.976;2023-12-20T04:57:46;0.40;;;0.20;;
15936;SDS011;9163;48.818;8.976;2023-12-20T05:00:13;0.50;;;0.27;;
15936;SDS011;9163;48.818;8.976;2023-12-20T05:02:41;0.50;;;0.27;;
15936;SDS011;9163;48.818;8.976;2023-12-20T05:05:08;0.40;;;0.30;;
15936;SDS011;9163;48.818;8.976;2023-12-20T05:07:35;0.93;;;0.30;;
15936;SDS011;9163;48.818;8.976;2023-12-20T05:10:03;0.30;;;0.20;;
15936;SDS011;9163;48.818;8.976;2023-12-20T05:12:31;0.30;;;0.30;;
15936;SDS011;9163;48.818;8.976;2023-12-20T05:14:59;2.37;;;0.50;;
15936;SDS011;9163;48.818;8.976;2023-12-20T05:17:26;1.53;;;0.30;;
15936;SDS011;9163;48.818;8.976;2023-12-20T05:19:54;0.30;;;0.27;;
15936;SDS011;9163;48.818;8.976;2023-12-20T05:22:21;0.40;;;0.40;;
15936;SDS011;9163;48.818;8.976;2023-12-20T05:24:48;0.53;;;0.50;;
15936;SDS011;9163;48.818;8.976;2023-12-20T05:27:15;2.67;;;0.70;;
15936;SDS011;9163;48.818;8.976;2023-12-20T05:29:42;1.10;;;0.60;;
15936;SDS011;9163;48.818;8.976;2023-12-20T05:32:11;1.90;;;0.70;;
15936;SDS011;9163;48.818;8.976;2023-12-20T05:34:38;0.80;;;0.73;;
15936;SDS011;9163;48.818;8.976;2023-12-20T05:37:05;1.27;;;0.87;;
15936;SDS011;9163;48.818;8.976;2023-12-20T05:39:33;1.47;;;1.07;;
15936;SDS011;9163;48.818;8.976;2023-12-20T05:42:00;1.70;;;1.37;;
15936;SDS011;9163;48.818;8.976;2023-12-20T05:44:27;2.67;;;1.90;;
15936;SDS011;9163;48.818;8.976;2023-12-20T05:46:54;1.60;;;1.27;;
15936;SDS011;9163;48.818;8.976;2023-12-20T05:49:23;1.90;;;1.20;;
15936;SDS011;9163;48.818;8.976;2023-12-20T05:51:50;1.30;;;1.20;;
15936;SDS011;9163;48.818;8.976;2023-12-20T05:54:17;1.47;;;1.10;;
15936;SDS011;9163;48.818;8.976;2023-12-20T05:56:45;1.83;;;1.30;;
15936;SDS011;9163;48.818;8.976;2023-12-20T05:59:12;1.40;;;1.10;;
15936;SDS011;9163;48.818;8.976;2023-12-20T06:01:39;1.77;;;1.30;;
15936;SDS011;9163;48.818;8.976;2023-12-20T06:04:06;2.70;;;1.30;;
15936;SDS011;9163;48.818;8.976;2023-12-20T06:06:35;1.73;;;1.33;;
15936;SDS011;9163;48.818;8.976;2023-12-20T06:09:07;1.60;;;1.40;;
15936;SDS011;9163;48.818;8.976;2023-12-20T06:11:34;1.83;;;1.30;;
15936;SDS011;9163;48.818;8.976;2023-12-20T06:14:02;1.10;;;1.00;;
15936;SDS011;9163;48.818;8.976;2023-12-20T06:16:29;2.93;;;1.80;;
15936;SDS011;9163;48.818;8.976;2023-12-20T06:18:56;1.97;;;1.70;;
15936;SDS011;9163;48.818;8.976;2023-12-20T06:21:23;1.40;;;1.10;;
15936;SDS011;9163;48.818;8.976;2023-12-20T06:23:52;5.00;;;4.50;;
15936;SDS011;9163;48.818;8.976;2023-12-20T06:26:20;2.70;;;1.70;;
15936;SDS011;9163;48.818;8.976;2023-12-20T06:28:47;1.80;;;1.40;;
15936;SDS011;9163;48.818;8.976;2023-12-20T06:31:14;2.30;;;2.10;;
15936;SDS011;9163;48.818;8.976;2023-12-20T06:33:42;1.70;;;1.40;;
15936;SDS011;9163;48.818;8.976;2023-12-20T06:36:10;1.20;;;1.10;;
15936;SDS011;9163;48.818;8.976;2023-12-20T06:38:38;1.57;;;1.27;;
15936;SDS011;9163;48.818;8.976;2023-12-20T06:41:10;1.57;;;1.30;;
15936;SDS011;9163;48.818;8.976;2023-12-20T06:43:39;1.93;;;1.20;;
15936;SDS011;9163;48.818;8.976;2023-12-20T06:46:07;2.60;;;2.40;;
15936;SDS011;9163;48.818;8.976;2023-12-20T06:48:34;3.03;;;2.50;;
15936;SDS011;9163;48.818;8.976;2023-12-20T06:51:02;2.77;;;2.57;;
15936;SDS011;9163;48.818;8.976;2023-12-20T06:53:29;3.20;;;2.90;;
15936;SDS011;9163;48.818;8.976;2023-12-20T06:55:56;2.90;;;2.60;;
15936;SDS011;9163;48.818;8.976;2023-12-20T06:58:25;3.40;;;3.10;;
15936;SDS011;9163;48.818;8.976;2023-12-20T07:00:52;4.40;;;3.10;;
15936;SDS011;9163;48.818;8.976;2023-12-20T07:03:19;3.93;;;3.50;;
15936;SDS011;9163;48.818;8.976;2023-12-20T07:05:47;4.23;;;3.40;;
15936;SDS011;9163;48.818;8.976;2023-12-20T07:08:14;5.43;;;4.03;;
15936;SDS011;9163;48.818;8.976;2023-12-20T07:10:41;4.27;;;3.60;;
15936;SDS011;9163;48.818;8.976;2023-12-20T07:13:08;3.50;;;3.20;;
15936;SDS011;9163;48.818;8.976;2023-12-20T07:15:37;5.80;;;5.30;;
15936;SDS011;9163;48.818;8.976;2023-12-20T07:18:04;4.33;;;3.70;;
15936;SDS011;9163;48.818;8.976;2023-12-20T07:20:32;3.20;;;2.90;;
15936;SDS011;9163;48.818;8.976;2023-12-20T07:22:59;4.63;;;2.80;;
15936;SDS011;9163;48.818;8.976;2023-12-20T07:25:27;3.17;;;2.80;;
15936;SDS011;9163;48.818;8.976;2023-12-20T07:27:54;3.73;;;2.93;;
15936;SDS011;9163;48.818;8.976;2023-12-20T07:30:21;3.43;;;3.03;;
15936;SDS011;9163;48.818;8.976;2023-12-20T07:32:50;3.57;;;2.60;;
15936;SDS011;9163;48.818;8.976;2023-12-20T07:35:17;4.30;;;2.80;;
15936;SDS011;9163;48.818;8.976;2023-12-20T07:37:45;3.27;;;2.70;;
15936;SDS011;9163;48.818;8.976;2023-12-20T07:40:12;4.27;;;3.00;;
15936;SDS011;9163;48.818;8.976;2023-12-20T07:42:41;4.80;;;3.00;;
15936;SDS011;9163;48.818;8.976;2023-12-20T07:45:09;3.20;;;2.90;;
15936;SDS011;9163;48.818;8.976;2023-12-20T07:47:37;4.03;;;3.30;;
15936;SDS011;9163;48.818;8.976;2023-12-20T07:50:06;7.07;;;3.00;;
15936;SDS011;9163;48.818;8.976;2023-12-20T07:52:33;3.90;;;2.93;;
15936;SDS011;9163;48.818;8.976;2023-12-20T07:55:01;5.60;;;3.30;;
15936;SDS011;9163;48.818;8.976;2023-12-20T07:57:28;7.43;;;5.47;;
15936;SDS011;9163;48.818;8.976;2023-12-20T07:59:56;4.50;;;3.60;;
15936;SDS011;9163;48.818;8.976;2023-12-20T08:02:23;4.60;;;4.10;;
15936;SDS011;9163;48.818;8.976;2023-12-20T08:04:50;5.40;;;3.47;;
15936;SDS011;9163;48.818;8.976;2023-12-20T08:07:19;5.33;;;3.50;;
15936;SDS011;9163;48.818;8.976;2023-12-20T08:09:46;6.57;;;4.17;;
15936;SDS011;9163;48.818;8.976;2023-12-20T08:12:13;5.30;;;3.63;;
15936;SDS011;9163;48.818;8.976;2023-12-20T08:14:42;6.13;;;4.77;;
15936;SDS011;9163;48.818;8.976;2023-12-20T08:17:09;6.83;;;5.37;;
15936;SDS011;9163;48.818;8.976;2023-12-20T08:19:38;7.80;;;3.97;;
15936;SDS011;9163;48.818;8.976;2023-12-20T08:22:05;3.73;;;2.80;;
15936;SDS011;9163;48.818;8.976;2023-12-20T08:24:33;2.97;;;2.67;;
15936;SDS011;9163;48.818;8.976;2023-12-20T08:27:01;5.40;;;3.07;;
15936;SDS011;9163;48.818;8.976;2023-12-20T08:29:28;5.57;;;3.30;;
15936;SDS011;9163;48.818;8.976;2023-12-20T08:31:55;3.77;;;2.90;;
15936;SDS011;9163;48.818;8.976;2023-12-20T08:34:23;3.90;;;2.90;;
15936;SDS011;9163;48.818;8.976;2023-12-20T08:36:50;3.53;;;2.90;;
15936;SDS011;9163;48.818;8.976;2023-12-20T08:39:17;2.20;;;2.00;;
15936;SDS011;9163;48.818;8.976;2023-12-20T08:41:46;2.17;;;1.97;;
15936;SDS011;9163;48.818;8.976;2023-12-20T08:44:14;2.87;;;1.70;;
15936;SDS011;9163;48.818;8.976;2023-12-20T08:46:41;1.87;;;1.47;;
15936;SDS011;9163;48.818;8.976;2023-12-20T08:49:08;2.33;;;1.60;;
15936;SDS011;9163;48.818;8.976;2023-12-20T08:51:35;4.00;;;2.07;;
15936;SDS011;9163;48.818;8.976;2023-12-20T08:54:05;2.83;;;1.60;;
15936;SDS011;9163;48.818;8.976;2023-12-20T08:56:34;2.63;;;1.50;;
15936;SDS011;9163;48.818;8.976;2023-12-20T08:59:02;2.53;;;1.40;;
15936;SDS011;9163;48.818;8.976;2023-12-20T09:01:30;2.60;;;1.43;;
15936;SDS011;9163;48.818;8.976;2023-12-20T09:03:57;3.73;;;2.40;;
15936;SDS011;9163;48.818;8.976;2023-12-20T09:06:24;5.17;;;2.00;;
15936;SDS011;9163;48.818;8.976;2023-12-20T09:08:51;3.37;;;1.60;;
15936;SDS011;9163;48.818;8.976;2023-12-20T09:11:18;2.93;;;2.10;;
15936;SDS011;9163;48.818;8.976;2023-12-20T09:13:46;3.43;;;1.60;;
15936;SDS011;9163;48.818;8.976;2023-12-20T09:16:14;4.93;;;2.43;;
15936;SDS011;9163;48.818;8.976;2023-12-20T09:18:41;4.80;;;2.17;;
15936;SDS011;9163;48.818;8.976;2023-12-20T09:21:09;6.00;;;2.90;;
15936;SDS011;9163;48.818;8.976;2023-12-20T09:23:36;3.03;;;1.63;;
15936;SDS011;9163;48.818;8.976;2023-12-20T09:26:04;5.03;;;2.27;;
15936;SDS011;9163;48.818;8.976;2023-12-20T09:28:31;3.87;;;1.63;;
15936;SDS011;9163;48.818;8.976;2023-12-20T09:31:03;3.23;;;1.40;;
15936;SDS011;9163;48.818;8.976;2023-12-20T09:33:32;3.63;;;1.63;;
15936;SDS011;9163;48.818;8.976;2023-12-20T09:36:00;4.77;;;1.30;;
15936;SDS011;9163;48.818;8.976;2023-12-20T09:38:27;3.23;;;0.97;;
15936;SDS011;9163;48.818;8.976;2023-12-20T09:40:54;3.40;;;1.30;;
15936;SDS011;9163;48.818;8.976;2023-12-20T09:43:22;4.27;;;1.57;;
15936;SDS011;9163;48.818;8.976;2023-12-20T09:45:52;2.60;;;1.33;;
15936;SDS011;9163;48.818;8.976;2023-12-20T09:48:20;2.50;;;1.00;;
15936;SDS011;9163;48.818;8.976;2023-12-20T09:50:48;3.67;;;1.40;;
15936;SDS011;9163;48.818;8.976;2023-12-20T09:53:16;6.30;;;2.97;;
15936;SDS011;9163;48.818;8.976;2023-12-20T09:55:46;8.90;;;4.63;;
15936;SDS011;9163;48.818;8.976;2023-12-20T09:58:14;7.17;;;3.60;;
15936;SDS011;9163;48.818;8.976;2023-12-20T10:00:42;3.77;;;1.57;;
15936;SDS011;9163;48.818;8.976;2023-12-20T10:03:09;4.23;;;1.57;;
15936;SDS011;9163;48.818;8.976;2023-12-20T10:05:38;6.03;;;1.47;;
15936;SDS011;9163;48.818;8.976;2023-12-20T10:08:10;3.57;;;1.50;;
15936;SDS011;9163;48.818;8.976;2023-12-20T10:10:38;5.30;;;1.87;;
15936;SDS011;9163;48.818;8.976;2023-12-20T10:13:06;5.50;;;1.43;;
15936;SDS011;9163;48.818;8.976;2023-12-20T10:15:34;4.67;;;1.70;;
15936;SDS011;9163;48.818;8.976;2023-12-20T10:18:02;4.57;;;1.60;;
15936;SDS011;9163;48.818;8.976;2023-12-20T10:20:30;4.00;;;1.93;;
15936;SDS011;9163;48.818;8.976;2023-12-20T10:22:59;5.07;;;2.03;;
15936;SDS011;9163;48.818;8.976;2023-12-20T10:25:28;4.87;;;1.50;;
15936;SDS011;9163;48.818;8.976;2023-12-20T10:28:09;8.13;;;1.80;;
15936;SDS011;9163;48.818;8.976;2023-12-20T10:30:37;6.60;;;1.70;;
15936;SDS011;9163;48.818;8.976;2023-12-20T10:33:05;6.10;;;1.73;;
15936;SDS011;9163;48.818;8.976;2023-12-20T10:35:34;7.80;;;2.40;;
15936;SDS011;9163;48.818;8.976;2023-12-20T10:38:03;3.47;;;2.10;;
15936;SDS011;9163;48.818;8.976;2023-12-20T10:40:32;5.47;;;1.90;;
15936;SDS011;9163;48.818;8.976;2023-12-20T10:43:03;5.23;;;1.60;;
15936;SDS011;9163;48.818;8.976;2023-12-20T10:45:31;6.77;;;2.30;;
15936;SDS011;9163;48.818;8.976;2023-12-20T10:47:58;3.53;;;1.30;;
15936;SDS011;9163;48.818;8.976;2023-12-20T10:50:26;5.73;;;1.30;;
15936;SDS011;9163;48.818;8.976;2023-12-20T10:52:54;4.00;;;1.53;;
15936;SDS011;9163;48.818;8.976;2023-12-20T10:55:22;6.43;;;2.40;;
15936;SDS011;9163;48.818;8.976;2023-12-20T10:57:51;3.90;;;1.70;;
15936;SDS011;9163;48.818;8.976;2023-12-20T11:00:19;5.40;;;1.67;;
15936;SDS011;9163;48.818;8.976;2023-12-20T11:02:49;5.70;;;1.70;;
15936;SDS011;9163;48.818;8.976;2023-12-20T11:05:20;6.07;;;1.47;;
15936;SDS011;9163;48.818;8.976;2023-12-20T11:07:55;7.00;;;2.27;;
15936;SDS011;9163;48.818;8.976;2023-12-20T11:10:30;5.70;;;1.70;;
15936;SDS011;9163;48.818;8.976;2023-12-20T11:13:06;7.70;;;2.47;;
15936;SDS011;9163;48.818;8.976;2023-12-20T11:15:39;5.93;;;1.80;;
15936;SDS011;9163;48.818;8.976;2023-12-20T11:18:07;8.70;;;1.60;;
15936;SDS011;9163;48.818;8.976;2023-12-20T11:20:36;7.83;;;1.80;;
15936;SDS011;9163;48.818;8.976;2023-12-20T11:23:05;3.47;;;1.50;;
15936;SDS011;9163;48.818;8.976;2023-12-20T11:28:16;4.70;;;1.40;;
15936;SDS011;9163;48.818;8.976;2023-12-20T11:30:49;6.47;;;1.50;;
15936;SDS011;9163;48.818;8.976;2023-12-20T11:33:21;8.83;;;3.17;;
15936;SDS011;9163;48.818;8.976;2023-12-20T11:35:48;6.70;;;1.70;;
15936;SDS011;9163;48.818;8.976;2023-12-20T11:38:16;9.07;;;1.70;;
15936;SDS011;9163;48.818;8.976;2023-12-20T11:40:43;5.97;;;1.70;;
15936;SDS011;9163;48.818;8.976;2023-12-20T11:43:11;6.90;;;2.40;;
15936;SDS011;9163;48.818;8.976;2023-12-20T11:45:42;6.80;;;1.90;;
15936;SDS011;9163;48.818;8.976;2023-12-20T11:48:17;7.20;;;2.03;;
15936;SDS011;9163;48.818;8.976;2023-12-20T11:50:45;4.60;;;1.70;;
15936;SDS011;9163;48.818;8.976;2023-12-20T11:53:12;7.97;;;2.00;;
15936;SDS011;9163;48.818;8.976;2023-12-20T11:55:39;12.00;;;2.63;;
15936;SDS011;9163;48.818;8.976;2023-12-20T11:58:06;4.33;;;2.27;;
15936;SDS011;9163;48.818;8.976;2023-12-20T12:00:34;6.67;;;2.73;;
15936;SDS011;9163;48.818;8.976;2023-12-20T12:03:03;6.40;;;2.67;;
15936;SDS011;9163;48.818;8.976;2023-12-20T12:05:31;9.50;;;3.53;;
15936;SDS011;9163;48.818;8.976;2023-12-20T12:07:58;11.77;;;4.77;;
15936;SDS011;9163;48.818;8.976;2023-12-20T12:10:25;6.43;;;2.80;;
15936;SDS011;9163;48.818;8.976;2023-12-20T12:12:53;7.20;;;2.97;;
15936;SDS011;9163;48.818;8.976;2023-12-20T12:15:21;5.43;;;2.50;;
15936;SDS011;9163;48.818;8.976;2023-12-20T12:17:52;5.77;;;2.37;;
15936;SDS011;9163;48.818;8.976;2023-12-20T12:20:22;6.40;;;2.70;;
15936;SDS011;9163;48.818;8.976;2023-12-20T12:22:57;9.23;;;2.90;;
15936;SDS011;9163;48.818;8.976;2023-12-20T12:25:25;8.53;;;1.80;;
15936;SDS011;9163;48.818;8.976;2023-12-20T12:27:52;4.57;;;1.83;;
15936;SDS011;9163;48.818;8.976;2023-12-20T12:30:20;4.10;;;1.80;;
15936;SDS011;9163;48.818;8.976;2023-12-20T12:32:47;5.27;;;1.37;;
15936;SDS011;9163;48.818;8.976;2023-12-20T12:35:14;4.40;;;1.67;;
15936;SDS011;9163;48.818;8.976;2023-12-20T12:37:43;5.80;;;1.70;;
15936;SDS011;9163;48.818;8.976;2023-12-20T12:40:10;4.87;;;1.80;;
15936;SDS011;9163;48.818;8.976;2023-12-20T12:42:39;4.77;;;1.90;;
15936;SDS011;9163;48.818;8.976;2023-12-20T12:45:08;7.47;;;3.17;;
15936;SDS011;9163;48.818;8.976;2023-12-20T12:47:37;9.50;;;2.20;;
15936;SDS011;9163;48.818;8.976;2023-12-20T12:50:05;6.60;;;1.97;;
15936;SDS011;9163;48.818;8.976;2023-12-20T12:52:32;4.27;;;2.23;;
15936;SDS011;9163;48.818;8.976;2023-12-20T12:55:02;4.63;;;2.13;;
15936;SDS011;9163;48.818;8.976;2023-12-20T12:57:30;6.90;;;2.33;;
15936;SDS011;9163;48.818;8.976;2023-12-20T12:59:57;5.93;;;2.60;;
15936;SDS011;9163;48.818;8.976;2023-12-20T13:02:24;7.60;;;3.00;;
15936;SDS011;9163;48.818;8.976;2023-12-20T13:04:52;6.97;;;2.80;;
15936;SDS011;9163;48.818;8.976;2023-12-20T13:07:19;4.07;;;1.77;;
15936;SDS011;9163;48.818;8.976;2023-12-20T13:09:46;5.83;;;1.90;;
15936;SDS011;9163;48.818;8.976;2023-12-20T13:12:15;7.13;;;3.30;;
15936;SDS011;9163;48.818;8.976;2023-12-20T13:14:42;14.20;;;6.30;;
15936;SDS011;9163;48.818;8.976;2023-12-20T13:17:10;8.07;;;3.53;;
15936;SDS011;9163;48.818;8.976;2023-12-20T13:19:38;8.10;;;4.00;;
15936;SDS011;9163;48.818;8.976;2023-12-20T13:22:05;4.47;;;1.93;;
15936;SDS011;9163;48.818;8.976;2023-12-20T13:24:32;5.07;;;1.57;;
15936;SDS011;9163;48.818;8.976;2023-12-20T13:27:01;3.10;;;1.30;;
15936;SDS011;9163;48.818;8.976;2023-12-20T13:29:29;3.37;;;1.20;;
15936;SDS011;9163;48.818;8.976;2023-12-20T13:31:56;2.93;;;1.30;;
15936;SDS011;9163;48.818;8.976;2023-12-20T13:34:24;3.33;;;1.33;;
15936;SDS011;9163;48.818;8.976;2023-12-20T13:36:51;2.17;;;0.87;;
15936;SDS011;9163;48.818;8.976;2023-12-20T13:39:18;8.00;;;1.50;;
15936;SDS011;9163;48.818;8.976;2023-12-20T13:41:46;7.67;;;1.47;;
15936;SDS011;9163;48.818;8.976;2023-12-20T13:44:14;4.33;;;1.43;;
15936;SDS011;9163;48.818;8.976;2023-12-20T13:46:42;6.17;;;1.40;;
15936;SDS011;9163;48.818;8.976;2023-12-20T13:49:11;3.60;;;1.20;;
15936;SDS011;9163;48.818;8.976;2023-12-20T13:51:39;5.83;;;1.53;;
15936;SDS011;9163;48.818;8.976;2023-12-20T13:54:06;3.47;;;1.83;;
15936;SDS011;9163;48.818;8.976;2023-12-20T13:56:34;5.77;;;1.70;;
15936;SDS011;9163;48.818;8.976;2023-12-20T13:59:01;5.70;;;1.77;;
15936;SDS011;9163;48.818;8.976;2023-12-20T14:01:28;9.73;;;1.50;;
15936;SDS011;9163;48.818;8.976;2023-12-20T14:03:57;4.23;;;1.40;;
15936;SDS011;9163;48.818;8.976;2023-12-20T14:06:25;7.03;;;1.63;;
15936;SDS011;9163;48.818;8.976;2023-12-20T14:08:53;8.37;;;1.97;;
15936;SDS011;9163;48.818;8.976;2023-12-20T14:11:20;6.83;;;1.80;;
15936;SDS011;9163;48.818;8.976;2023-12-20T14:13:47;7.50;;;1.63;;
15936;SDS011;9163;48.818;8.976;2023-12-20T14:16:14;4.77;;;1.70;;
15936;SDS011;9163;48.818;8.976;2023-12-20T14:18:42;3.93;;;1.40;;
15936;SDS011;9163;48.818;8.976;2023-12-20T14:21:10;8.20;;;1.67;;
15936;SDS011;9163;48.818;8.976;2023-12-20T14:23:38;5.90;;;1.77;;
15936;SDS011;9163;48.818;8.976;2023-12-20T14:26:05;4.70;;;1.73;;
15936;SDS011;9163;48.818;8.976;2023-12-20T14:28:32;7.87;;;2.03;;
15936;SDS011;9163;48.818;8.976;2023-12-20T14:30:59;5.47;;;1.83;;
15936;SDS011;9163;48.818;8.976;2023-12-20T14:33:27;5.63;;;1.40;;
15936;SDS011;9163;48.818;8.976;2023-12-20T14:35:54;7.80;;;1.60;;
15936;SDS011;9163;48.818;8.976;2023-12-20T14:38:22;6.73;;;1.80;;
15936;SDS011;9163;48.818;8.976;2023-12-20T14:40:51;6.90;;;1.57;;
15936;SDS011;9163;48.818;8.976;2023-12-20T14:43:18;6.90;;;1.67;;
15936;SDS011;9163;48.818;8.976;2023-12-20T14:45:47;5.83;;;1.70;;
15936;SDS011;9163;48.818;8.976;2023-12-20T14:48:16;5.87;;;1.50;;
15936;SDS011;9163;48.818;8.976;2023-12-20T14:50:43;6.67;;;1.60;;
15936;SDS011;9163;48.818;8.976;2023-12-20T14:53:13;5.97;;;1.83;;
15936;SDS011;9163;48.818;8.976;2023-12-20T14:55:43;5.73;;;1.80;;
15936;SDS011;9163;48.818;8.976;2023-12-20T14:58:10;4.23;;;1.87;;
15936;SDS011;9163;48.818;8.976;2023-12-20T15:00:37;5.97;;;1.50;;
15936;SDS011;9163;48.818;8.976;2023-12-20T15:03:05;9.10;;;3.07;;
15936;SDS011;9163;48.818;8.976;2023-12-20T15:05:32;6.00;;;1.90;;
15936;SDS011;9163;48.818;8.976;2023-12-20T15:07:59;6.03;;;2.20;;